createdAt,value
2022-12-22T08:51:47.196Z,100.00
2022-12-22T08:54:15.441Z,100.00
2022-12-22T08:56:44.562Z,100.00
2022-12-22T08:59:13.481Z,100.00
2022-12-22T09:01:47.869Z,100.00
2022-12-22T09:04:21.315Z,100.00
2022-12-22T09:06:53.381Z,100.00
2022-12-22T09:09:22.526Z,100.00
2022-12-22T09:11:50.780Z,100.00
2022-12-22T09:14:18.457Z,100.00
2022-12-22T09:16:46.066Z,100.00
2022-12-22T09:19:13.652Z,100.00
2022-12-22T09:21:41.024Z,100.00
2022-12-22T09:24:08.862Z,100.00
2022-12-22T09:26:36.676Z,100.00
2022-12-22T09:29:05.340Z,96.44
2022-12-22T09:31:34.196Z,95.29
2022-12-22T09:34:01.810Z,94.79
2022-12-22T09:36:31.994Z,92.09
2022-12-22T09:39:04.542Z,92.46
2022-12-22T09:41:56.150Z,91.65
2022-12-22T09:44:38.849Z,92.05
2022-12-22T09:47:28.651Z,90.31
2022-12-22T09:49:58.014Z,91.56
2022-12-22T09:52:34.360Z,90.25
2022-12-22T09:55:12.311Z,88.89
2022-12-22T09:57:39.981Z,88.13
2022-12-22T10:00:28.416Z,91.31
2022-12-22T10:03:20.409Z,89.61
2022-12-22T10:06:10.399Z,93.04
2022-12-22T10:08:40.802Z,94.89
2022-12-22T10:11:18.848Z,100.00
2022-12-22T10:13:46.676Z,100.00
2022-12-22T10:16:28.843Z,100.00
2022-12-22T10:19:11.894Z,100.00
2022-12-22T10:21:46.347Z,100.00
2022-12-22T10:24:28.240Z,100.00
2022-12-22T10:27:00.752Z,100.00
2022-12-22T10:29:29.530Z,100.00
2022-12-22T10:32:11.715Z,100.00
2022-12-22T10:35:05.856Z,100.00
2022-12-22T10:37:38.709Z,100.00
2022-12-22T10:40:23.915Z,100.00
2022-12-22T10:42:55.968Z,100.00
2022-12-22T10:45:27.816Z,100.00
2022-12-22T10:47:57.444Z,100.00
2022-12-22T10:50:24.894Z,100.00
2022-12-22T10:52:58.235Z,99.70
2022-12-22T10:55:29.969Z,99.74
2022-12-22T10:58:11.806Z,97.34
2022-12-22T11:00:42.667Z,94.83
2022-12-22T11:03:20.632Z,94.11
2022-12-22T11:05:51.838Z,92.49
2022-12-22T11:08:21.047Z,92.55
2022-12-22T11:11:46.549Z,91.13
2022-12-22T11:14:53.354Z,87.75
2022-12-22T11:18:19.956Z,85.52
2022-12-22T11:21:10.444Z,84.95
2022-12-22T11:24:21.696Z,85.63
2022-12-22T11:27:29.146Z,87.21
2022-12-22T11:30:27.379Z,89.48
2022-12-22T11:33:43.017Z,90.68
2022-12-22T11:36:35.898Z,98.17
2022-12-22T11:39:22.870Z,100.00
2022-12-22T11:42:58.101Z,100.00
2022-12-22T11:46:21.316Z,100.00
2022-12-22T11:49:48.914Z,100.00
2022-12-22T11:52:53.484Z,100.00
2022-12-22T11:55:44.756Z,100.00
2022-12-22T11:58:58.117Z,98.35
2022-12-22T12:02:36.419Z,95.43
2022-12-22T12:05:51.928Z,94.81
2022-12-22T12:08:50.279Z,93.31
2022-12-22T12:11:41.503Z,91.21
2022-12-22T12:14:54.826Z,91.04
2022-12-22T12:19:03.561Z,89.54
2022-12-22T12:21:50.117Z,88.23
2022-12-22T12:25:40.023Z,86.70
2022-12-22T12:29:04.624Z,84.69
2022-12-22T12:31:53.755Z,84.89
2022-12-22T12:34:23.165Z,84.67
2022-12-22T12:37:25.934Z,85.72
2022-12-22T12:40:31.999Z,85.49
2022-12-22T12:43:00.450Z,86.19
2022-12-22T12:45:49.114Z,84.25
2022-12-22T12:48:22.771Z,83.65
2022-12-22T12:50:57.843Z,83.89
2022-12-22T12:53:30.442Z,83.58
2022-12-22T12:56:07.177Z,85.21
2022-12-22T12:58:37.783Z,84.65
2022-12-22T13:01:11.739Z,84.91
2022-12-22T13:06:54.136Z,85.47
2022-12-22T13:12:48.497Z,86.49
2022-12-22T13:15:42.602Z,88.28
2022-12-22T13:18:49.992Z,87.88
2022-12-22T13:21:53.459Z,89.18
2022-12-22T13:24:30.049Z,93.18
2022-12-22T13:27:06.904Z,95.09
2022-12-22T13:29:47.320Z,96.51
2022-12-22T13:32:35.771Z,96.39
2022-12-22T13:35:46.576Z,96.97
2022-12-22T13:38:37.261Z,96.25
2022-12-22T13:41:27.270Z,96.48
2022-12-22T13:44:04.547Z,95.06
2022-12-22T13:46:36.219Z,92.53
2022-12-22T13:49:07.653Z,93.50
2022-12-22T13:51:38.501Z,94.97
2022-12-22T13:54:36.323Z,93.17
2022-12-22T13:57:13.193Z,92.03
2022-12-22T13:59:45.606Z,90.90
2022-12-22T14:02:16.132Z,90.66
2022-12-22T14:05:09.359Z,89.66
2022-12-22T14:07:37.091Z,91.10
2022-12-22T14:10:05.985Z,90.18
2022-12-22T14:12:46.951Z,89.93
2022-12-22T14:15:20.642Z,90.11
2022-12-22T14:17:52.808Z,89.06
2022-12-22T14:20:37.136Z,87.69
2022-12-22T14:23:24.693Z,87.15
2022-12-22T14:25:53.930Z,88.04
2022-12-22T14:28:29.616Z,88.33
2022-12-22T14:31:03.980Z,89.03
2022-12-22T14:33:35.023Z,88.67
2022-12-22T14:36:24.859Z,88.91
2022-12-22T14:39:03.771Z,89.39
2022-12-22T14:42:11.345Z,89.41
2022-12-22T14:44:48.950Z,90.03
2022-12-22T14:47:25.407Z,89.55
2022-12-22T14:50:26.082Z,90.19
2022-12-22T14:53:01.624Z,89.76
2022-12-22T14:55:41.141Z,88.82
2022-12-22T14:58:22.268Z,89.07
2022-12-22T15:01:30.070Z,88.54
2022-12-22T15:04:20.661Z,88.06
2022-12-22T15:06:50.209Z,87.45
2022-12-22T15:09:28.349Z,87.38
2022-12-22T15:12:13.463Z,87.60
2022-12-22T15:14:42.060Z,87.18
2022-12-22T15:17:25.542Z,86.36
2022-12-22T15:19:58.816Z,86.67
2022-12-22T15:22:26.185Z,88.31
2022-12-22T15:24:53.479Z,88.25
2022-12-22T15:27:20.871Z,88.85
2022-12-22T15:29:48.252Z,89.31
2022-12-22T15:32:15.744Z,89.40
2022-12-22T15:34:43.549Z,89.76
2022-12-22T15:37:13.948Z,91.03
2022-12-22T15:39:41.366Z,91.11
2022-12-22T15:42:08.699Z,91.51
2022-12-22T15:44:38.995Z,91.29
2022-12-22T15:47:09.891Z,91.57
2022-12-22T15:49:37.223Z,90.63
2022-12-22T15:52:06.272Z,91.16
2022-12-22T15:54:35.486Z,89.90
2022-12-22T15:57:03.025Z,90.18
2022-12-22T15:59:31.013Z,90.94
2022-12-22T16:02:01.776Z,94.36
2022-12-22T16:04:30.208Z,95.19
2022-12-22T16:06:59.634Z,94.68
2022-12-22T16:09:42.995Z,95.08
2022-12-22T16:12:17.167Z,96.39
2022-12-22T16:14:51.701Z,96.99
2022-12-22T16:17:27.609Z,98.42
2022-12-22T16:19:55.241Z,100.00
2022-12-22T16:22:36.212Z,100.00
2022-12-22T16:25:16.384Z,100.00
2022-12-22T16:27:43.995Z,100.00
2022-12-22T16:30:24.802Z,100.00
2022-12-22T16:32:52.688Z,100.00
2022-12-22T16:35:25.644Z,100.00
2022-12-22T16:37:58.904Z,100.00
2022-12-22T16:40:28.173Z,100.00
2022-12-22T16:45:59.318Z,100.00
2022-12-22T16:48:56.939Z,100.00
2022-12-22T16:51:37.253Z,100.00
2022-12-22T16:54:05.115Z,100.00
2022-12-22T16:56:32.842Z,100.00
2022-12-22T16:59:02.919Z,100.00
2022-12-22T17:01:56.904Z,100.00
2022-12-22T17:04:32.744Z,100.00
2022-12-22T17:07:02.080Z,100.00
2022-12-22T17:09:56.427Z,100.00
2022-12-22T17:12:29.931Z,100.00
2022-12-22T17:14:59.362Z,100.00
2022-12-22T17:17:32.913Z,100.00
2022-12-22T17:20:02.989Z,100.00
2022-12-22T17:22:33.771Z,100.00
2022-12-22T17:25:05.623Z,100.00
2022-12-22T17:27:34.925Z,100.00
2022-12-22T17:30:04.442Z,100.00
2022-12-22T17:32:31.904Z,100.00
2022-12-22T17:34:59.235Z,100.00
2022-12-22T17:37:26.626Z,100.00
2022-12-22T17:40:01.399Z,100.00
2022-12-22T17:42:31.333Z,100.00
2022-12-22T17:44:58.916Z,100.00
2022-12-22T17:47:32.459Z,100.00
2022-12-22T17:50:02.163Z,100.00
2022-12-22T17:52:34.463Z,100.00
2022-12-22T17:55:01.905Z,100.00
2022-12-22T17:57:35.628Z,100.00
2022-12-22T18:00:04.584Z,100.00
2022-12-22T18:02:32.350Z,100.00
2022-12-22T18:05:00.004Z,100.00
2022-12-22T18:07:27.918Z,100.00
2022-12-22T18:10:00.020Z,100.00
2022-12-22T18:12:27.458Z,100.00
2022-12-22T18:14:54.834Z,100.00
2022-12-22T18:17:35.430Z,100.00
2022-12-22T18:20:03.429Z,100.00
2022-12-22T18:22:30.948Z,100.00
2022-12-22T18:24:58.411Z,100.00
2022-12-22T18:27:25.739Z,100.00
2022-12-22T18:29:53.147Z,100.00
2022-12-22T18:32:27.210Z,100.00
2022-12-22T18:34:55.447Z,100.00
2022-12-22T18:37:22.831Z,100.00
2022-12-22T18:39:50.220Z,100.00
2022-12-22T18:42:23.955Z,100.00
2022-12-22T18:44:57.197Z,100.00
2022-12-22T18:47:25.883Z,100.00
2022-12-22T18:49:53.271Z,100.00
2022-12-22T18:52:23.577Z,100.00
2022-12-22T18:54:51.087Z,100.00
2022-12-22T18:57:20.068Z,100.00
2022-12-22T18:59:48.822Z,100.00
2022-12-22T19:02:28.875Z,100.00
2022-12-22T19:04:57.287Z,100.00
2022-12-22T19:07:26.326Z,100.00
2022-12-22T19:09:53.762Z,100.00
2022-12-22T19:12:23.157Z,100.00
2022-12-22T19:14:59.395Z,100.00
2022-12-22T19:17:28.846Z,100.00
2022-12-22T19:19:58.264Z,100.00
2022-12-22T19:22:25.663Z,100.00
2022-12-22T19:24:57.356Z,100.00
2022-12-22T19:27:27.909Z,100.00
2022-12-22T19:30:03.579Z,100.00
2022-12-22T19:32:46.120Z,100.00
2022-12-22T19:35:21.946Z,100.00
2022-12-22T19:37:52.803Z,100.00
2022-12-22T19:40:28.186Z,100.00
2022-12-22T19:42:57.954Z,100.00
2022-12-22T19:45:36.840Z,100.00
2022-12-22T19:48:15.067Z,100.00
2022-12-22T19:50:42.391Z,100.00
2022-12-22T19:53:11.644Z,100.00
2022-12-22T19:56:02.936Z,100.00
2022-12-22T19:58:39.875Z,100.00
2022-12-22T20:01:11.596Z,100.00
2022-12-22T20:03:39.041Z,100.00
2022-12-22T20:06:08.862Z,100.00
2022-12-22T20:08:36.662Z,100.00
2022-12-22T20:11:06.157Z,100.00
2022-12-22T20:13:33.901Z,100.00
2022-12-22T20:16:01.819Z,100.00
2022-12-22T20:18:30.402Z,100.00
2022-12-22T20:21:13.381Z,100.00
2022-12-22T20:23:41.505Z,100.00
2022-12-22T20:26:19.142Z,100.00
2022-12-22T20:28:47.043Z,100.00
2022-12-22T20:31:18.366Z,100.00
2022-12-22T20:33:46.120Z,100.00
2022-12-22T20:36:31.723Z,100.00
2022-12-22T20:39:02.048Z,100.00
2022-12-22T20:41:29.514Z,100.00
2022-12-22T20:43:56.879Z,100.00
2022-12-22T20:46:29.932Z,100.00
2022-12-22T20:49:04.552Z,100.00
2022-12-22T20:51:34.081Z,100.00
2022-12-22T20:54:01.719Z,100.00
2022-12-22T20:56:35.348Z,100.00
2022-12-22T20:59:22.853Z,100.00
2022-12-22T21:01:52.801Z,100.00
2022-12-22T21:04:21.558Z,100.00
2022-12-22T21:06:57.168Z,100.00
2022-12-22T21:09:25.546Z,100.00
2022-12-22T21:11:52.964Z,100.00
2022-12-22T21:14:20.303Z,100.00
2022-12-22T21:16:48.587Z,100.00
2022-12-22T21:19:21.068Z,100.00
2022-12-22T21:21:48.499Z,100.00
2022-12-22T21:24:15.956Z,100.00
2022-12-22T21:26:52.267Z,100.00
2022-12-22T21:29:26.181Z,100.00
2022-12-22T21:31:53.860Z,100.00
2022-12-22T21:34:21.734Z,100.00
2022-12-22T21:36:59.523Z,100.00
2022-12-22T21:39:44.552Z,100.00
2022-12-22T21:42:19.959Z,100.00
2022-12-22T21:44:47.731Z,100.00
2022-12-22T21:47:21.086Z,100.00
2022-12-22T21:49:48.439Z,100.00
2022-12-22T21:52:15.752Z,100.00
2022-12-22T21:54:43.255Z,100.00
2022-12-22T21:57:16.339Z,100.00
2022-12-22T21:59:43.833Z,100.00
2022-12-22T22:02:18.870Z,100.00
2022-12-22T22:04:53.692Z,100.00
2022-12-22T22:07:21.783Z,100.00
2022-12-22T22:09:49.207Z,100.00
2022-12-22T22:12:36.870Z,100.00
2022-12-22T22:15:07.206Z,100.00
2022-12-22T22:17:34.632Z,100.00
2022-12-22T22:20:02.139Z,100.00
2022-12-22T22:22:30.052Z,100.00
2022-12-22T22:24:57.495Z,100.00
2022-12-22T22:27:24.907Z,100.00
2022-12-22T22:29:52.293Z,100.00
2022-12-22T22:32:19.724Z,100.00
2022-12-22T22:34:47.097Z,100.00
2022-12-22T22:37:14.433Z,100.00
2022-12-22T22:39:41.778Z,100.00
2022-12-22T22:42:09.224Z,100.00
2022-12-22T22:44:36.598Z,100.00
2022-12-22T22:47:04.136Z,100.00
2022-12-22T22:49:31.494Z,100.00
2022-12-22T22:51:58.881Z,100.00
2022-12-22T22:54:26.662Z,100.00
2022-12-22T22:56:54.641Z,100.00
2022-12-22T22:59:21.970Z,100.00
2022-12-22T23:01:49.455Z,100.00
2022-12-22T23:04:17.066Z,100.00
2022-12-22T23:06:44.467Z,100.00
2022-12-22T23:09:11.827Z,100.00
2022-12-22T23:11:39.663Z,100.00
2022-12-22T23:14:06.980Z,100.00
2022-12-22T23:16:38.420Z,100.00
2022-12-22T23:19:06.504Z,100.00
2022-12-22T23:21:34.188Z,100.00
2022-12-22T23:24:01.695Z,100.00
2022-12-22T23:26:29.171Z,100.00
2022-12-22T23:29:01.237Z,100.00
2022-12-22T23:31:32.845Z,100.00
2022-12-22T23:34:00.657Z,100.00
2022-12-22T23:36:28.263Z,100.00
2022-12-22T23:38:55.704Z,100.00
2022-12-22T23:41:23.016Z,100.00
2022-12-22T23:43:51.058Z,100.00
2022-12-22T23:46:18.782Z,100.00
2022-12-22T23:48:57.264Z,100.00
2022-12-22T23:51:28.495Z,100.00
2022-12-22T23:53:59.269Z,100.00
2022-12-22T23:56:27.879Z,100.00
2022-12-22T23:58:55.422Z,100.00
